createdAt,value
2023-07-01T00:00:10.583Z,7.00
2023-07-01T00:01:14.277Z,5.80
2023-07-01T00:02:18.027Z,6.70
2023-07-01T00:03:21.751Z,6.22
2023-07-01T00:04:25.548Z,6.25
2023-07-01T00:05:29.219Z,6.03
2023-07-01T00:06:33.004Z,7.13
2023-07-01T00:07:36.709Z,6.15
2023-07-01T00:08:40.379Z,5.88
2023-07-01T00:09:44.042Z,6.03
2023-07-01T00:10:48.101Z,8.00
2023-07-01T00:11:51.958Z,9.23
2023-07-01T00:12:55.705Z,5.97
2023-07-01T00:13:59.337Z,6.07
2023-07-01T00:15:05.207Z,6.97
2023-07-01T00:16:08.928Z,6.38
2023-07-01T00:17:12.644Z,6.80
2023-07-01T00:18:16.323Z,7.10
2023-07-01T00:19:20.059Z,7.40
2023-07-01T00:20:23.834Z,8.52
2023-07-01T00:21:27.537Z,6.70
2023-07-01T00:22:31.212Z,7.53
2023-07-01T00:23:34.887Z,7.18
2023-07-01T00:24:38.666Z,8.73
2023-07-01T00:25:42.464Z,6.47
2023-07-01T00:26:46.195Z,7.97
2023-07-01T00:27:49.888Z,7.40
2023-07-01T00:28:54.766Z,6.75
2023-07-01T00:29:58.430Z,8.98
2023-07-01T00:31:03.955Z,6.78
2023-07-01T00:32:08.822Z,6.80
2023-07-01T00:33:12.594Z,7.40
2023-07-01T00:34:16.271Z,6.20
2023-07-01T00:35:19.951Z,7.85
2023-07-01T00:36:23.655Z,6.22
2023-07-01T00:37:27.315Z,7.70
2023-07-01T00:38:31.007Z,6.73
2023-07-01T00:39:34.648Z,7.45
2023-07-01T00:40:38.260Z,6.32
2023-07-01T00:41:41.907Z,7.47
2023-07-01T00:42:46.637Z,7.43
2023-07-01T00:44:01.798Z,6.43
2023-07-01T00:45:06.209Z,7.88
2023-07-01T00:46:11.638Z,8.60
2023-07-01T00:47:15.795Z,7.57
2023-07-01T00:48:24.559Z,6.75
2023-07-01T00:49:28.291Z,7.27
2023-07-01T00:50:32.655Z,6.53
2023-07-01T00:51:36.742Z,5.90
2023-07-01T00:52:41.272Z,6.15
2023-07-01T00:53:45.040Z,7.82
2023-07-01T00:54:48.903Z,7.43
2023-07-01T00:55:53.499Z,6.32
2023-07-01T00:56:57.444Z,7.93
2023-07-01T00:58:01.209Z,7.70
2023-07-01T00:59:04.965Z,8.00
2023-07-01T01:00:10.407Z,9.10
2023-07-01T01:01:20.585Z,7.22
2023-07-01T01:02:27.543Z,7.05
2023-07-01T01:03:36.086Z,9.43
2023-07-01T01:04:48.323Z,6.10
2023-07-01T01:05:57.318Z,10.30
2023-07-01T01:07:07.190Z,8.25
2023-07-01T01:08:13.528Z,8.57
2023-07-01T01:09:23.718Z,6.57
2023-07-01T01:10:29.360Z,7.40
2023-07-01T01:11:34.451Z,7.00
2023-07-01T01:12:39.927Z,7.00
2023-07-01T01:13:44.634Z,7.57
2023-07-01T01:14:50.594Z,6.78
2023-07-01T01:15:55.043Z,7.45
2023-07-01T01:17:02.287Z,6.80
2023-07-01T01:18:08.443Z,9.02
2023-07-01T01:19:19.245Z,7.38
2023-07-01T01:20:24.654Z,7.72
2023-07-01T01:21:29.573Z,7.47
2023-07-01T01:22:50.735Z,7.30
2023-07-01T01:24:03.040Z,8.43
2023-07-01T01:25:09.465Z,7.80
2023-07-01T01:26:19.766Z,6.47
2023-07-01T01:27:26.607Z,8.15
2023-07-01T01:28:31.942Z,7.77
2023-07-01T01:29:35.776Z,7.68
2023-07-01T01:30:39.652Z,8.23
2023-07-01T01:31:43.371Z,9.35
2023-07-01T01:32:47.096Z,9.68
2023-07-01T01:33:50.836Z,7.80
2023-07-01T01:34:54.478Z,7.28
2023-07-01T01:36:04.064Z,8.13
2023-07-01T01:37:13.464Z,8.48
2023-07-01T01:38:24.524Z,8.48
2023-07-01T01:39:32.100Z,7.00
2023-07-01T01:40:41.869Z,7.82
2023-07-01T01:41:52.966Z,9.13
2023-07-01T01:43:01.741Z,7.88
2023-07-01T01:44:10.676Z,7.82
2023-07-01T01:45:17.063Z,8.07
2023-07-01T01:46:23.062Z,7.47
2023-07-01T01:47:31.405Z,8.48
2023-07-01T01:48:36.446Z,7.18
2023-07-01T01:49:40.986Z,7.15
2023-07-01T01:50:48.975Z,7.33
2023-07-01T01:51:55.032Z,6.78
2023-07-01T01:52:59.398Z,7.28
2023-07-01T01:54:06.266Z,7.82
2023-07-01T01:55:12.273Z,7.60
2023-07-01T01:56:17.176Z,6.73
2023-07-01T01:57:21.909Z,7.35
2023-07-01T01:58:25.804Z,9.18
2023-07-01T01:59:31.163Z,7.68
2023-07-01T02:00:35.190Z,7.82
2023-07-01T02:01:38.801Z,8.20
2023-07-01T02:02:42.667Z,7.00
2023-07-01T02:03:46.781Z,8.75
2023-07-01T02:04:50.773Z,7.32
2023-07-01T02:05:54.576Z,8.98
2023-07-01T02:06:58.186Z,8.77
2023-07-01T02:08:01.910Z,6.90
2023-07-01T02:09:05.722Z,6.75
2023-07-01T02:10:10.318Z,8.00
2023-07-01T02:11:14.006Z,7.18
2023-07-01T02:12:17.703Z,7.00
2023-07-01T02:13:21.472Z,8.93
2023-07-01T02:14:25.652Z,8.55
2023-07-01T02:15:30.967Z,8.48
2023-07-01T02:16:36.030Z,7.40
2023-07-01T02:17:39.943Z,8.77
2023-07-01T02:18:43.715Z,9.73
2023-07-01T02:19:47.452Z,9.52
2023-07-01T02:20:51.128Z,8.25
2023-07-01T02:21:54.811Z,8.63
2023-07-01T02:22:58.516Z,7.47
2023-07-01T02:24:02.195Z,7.63
2023-07-01T02:25:06.606Z,7.55
2023-07-01T02:26:10.258Z,7.90
2023-07-01T02:27:13.983Z,8.85
2023-07-01T02:28:17.655Z,7.40
2023-07-01T02:29:21.327Z,7.32
2023-07-01T02:30:25.035Z,8.13
2023-07-01T02:31:30.501Z,7.45
2023-07-01T02:32:34.265Z,7.35
2023-07-01T02:33:38.024Z,7.27
2023-07-01T02:34:41.924Z,7.13
2023-07-01T02:35:45.622Z,7.88
2023-07-01T02:36:49.247Z,8.98
2023-07-01T02:37:52.873Z,7.78
2023-07-01T02:38:56.643Z,9.27
2023-07-01T02:40:00.366Z,8.63
2023-07-01T02:41:04.101Z,10.68
2023-07-01T02:42:08.226Z,7.85
2023-07-01T02:43:11.939Z,7.05
2023-07-01T02:44:15.698Z,6.67
2023-07-01T02:45:19.400Z,7.78
2023-07-01T02:46:23.235Z,9.55
2023-07-01T02:47:28.539Z,7.43
2023-07-01T02:48:32.222Z,7.80
2023-07-01T02:49:35.896Z,7.63
2023-07-01T02:50:39.667Z,8.27
2023-07-01T02:51:43.412Z,7.63
2023-07-01T02:52:47.099Z,8.10
2023-07-01T02:53:50.850Z,8.90
2023-07-01T02:54:54.547Z,7.07
2023-07-01T02:55:58.345Z,7.20
2023-07-01T02:57:02.092Z,8.02
2023-07-01T02:58:05.701Z,8.00
2023-07-01T02:59:09.432Z,9.98
2023-07-01T03:00:14.470Z,8.80
2023-07-01T03:01:18.300Z,8.30
2023-07-01T03:02:22.027Z,7.95
2023-07-01T03:03:27.549Z,10.57
2023-07-01T03:04:31.461Z,8.27
2023-07-01T03:05:35.419Z,7.97
2023-07-01T03:06:39.095Z,9.18
2023-07-01T03:07:42.717Z,9.40
2023-07-01T03:08:46.397Z,9.23
2023-07-01T03:09:50.019Z,7.30
2023-07-01T03:10:53.689Z,7.60
2023-07-01T03:11:57.842Z,8.18
2023-07-01T03:13:01.536Z,7.80
2023-07-01T03:14:05.369Z,7.45
2023-07-01T03:15:09.705Z,7.55
2023-07-01T03:16:13.628Z,8.43
2023-07-01T03:17:17.732Z,6.95
2023-07-01T03:18:21.564Z,8.25
2023-07-01T03:19:26.911Z,8.02
2023-07-01T03:20:30.571Z,8.25
2023-07-01T03:21:34.289Z,11.13
2023-07-01T03:22:37.955Z,7.57
2023-07-01T03:23:41.698Z,8.70
2023-07-01T03:24:45.382Z,8.48
2023-07-01T03:25:49.071Z,8.25
2023-07-01T03:26:52.775Z,8.57
2023-07-01T03:27:56.760Z,6.82
2023-07-01T03:29:00.532Z,8.75
2023-07-01T03:30:04.216Z,8.60
2023-07-01T03:31:07.861Z,6.75
2023-07-01T03:32:11.724Z,7.43
2023-07-01T03:33:15.523Z,9.27
2023-07-01T03:34:19.704Z,8.68
2023-07-01T03:35:25.521Z,7.00
2023-07-01T03:36:29.191Z,7.25
2023-07-01T03:37:32.908Z,8.33
2023-07-01T03:38:36.651Z,7.90
2023-07-01T03:39:40.298Z,8.82
2023-07-01T03:40:44.098Z,7.85
2023-07-01T03:41:47.974Z,8.18
2023-07-01T03:42:51.784Z,7.87
2023-07-01T03:43:55.517Z,8.50
2023-07-01T03:44:59.276Z,9.05
2023-07-01T03:46:03.202Z,8.48
2023-07-01T03:47:07.192Z,9.23
2023-07-01T03:48:10.910Z,8.93
2023-07-01T03:49:14.788Z,9.77
2023-07-01T03:50:18.682Z,10.32
2023-07-01T03:51:23.961Z,8.18
2023-07-01T03:52:27.692Z,7.93
2023-07-01T03:53:31.373Z,8.80
2023-07-01T03:54:35.083Z,9.43
2023-07-01T03:55:38.979Z,9.15
2023-07-01T03:56:42.681Z,8.75
2023-07-01T03:57:46.344Z,7.80
2023-07-01T03:58:50.032Z,8.50
2023-07-01T03:59:53.644Z,7.13
2023-07-01T04:00:57.354Z,7.63
2023-07-01T04:02:01.087Z,7.75
2023-07-01T04:03:04.966Z,7.10
2023-07-01T04:04:08.846Z,8.83
2023-07-01T04:05:12.603Z,8.32
2023-07-01T04:06:16.353Z,8.65
2023-07-01T04:07:21.737Z,7.47
2023-07-01T04:08:25.394Z,10.07
2023-07-01T04:09:28.999Z,8.37
2023-07-01T04:10:32.631Z,7.85
2023-07-01T04:11:36.420Z,8.55
2023-07-01T04:12:41.220Z,7.93
2023-07-01T04:13:45.012Z,8.18
2023-07-01T04:14:48.697Z,10.07
2023-07-01T04:15:52.415Z,7.38
2023-07-01T04:16:56.119Z,7.65
2023-07-01T04:17:59.933Z,7.82
2023-07-01T04:19:03.749Z,8.82
2023-07-01T04:20:08.222Z,8.57
2023-07-01T04:21:11.922Z,7.93
2023-07-01T04:22:15.639Z,7.65
2023-07-01T04:23:20.910Z,7.57
2023-07-01T04:24:24.535Z,7.57
2023-07-01T04:25:28.279Z,8.67
2023-07-01T04:26:31.937Z,9.55
2023-07-01T04:27:35.954Z,7.97
2023-07-01T04:28:39.743Z,7.10
2023-07-01T04:29:43.444Z,8.30
2023-07-01T04:30:47.421Z,7.10
2023-07-01T04:31:51.266Z,7.38
2023-07-01T04:32:54.998Z,7.82
2023-07-01T04:33:58.716Z,6.63
2023-07-01T04:35:02.955Z,7.85
2023-07-01T04:36:06.757Z,7.10
2023-07-01T04:37:10.497Z,7.65
2023-07-01T04:38:14.168Z,6.68
2023-07-01T04:39:20.623Z,8.13
2023-07-01T04:40:24.367Z,8.75
2023-07-01T04:41:28.070Z,8.13
2023-07-01T04:42:31.714Z,7.50
2023-07-01T04:43:35.546Z,8.25
2023-07-01T04:44:39.193Z,7.97
2023-07-01T04:45:44.019Z,8.95
2023-07-01T04:46:47.771Z,6.60
2023-07-01T04:47:51.603Z,8.05
2023-07-01T04:48:55.282Z,7.10
2023-07-01T04:49:59.005Z,7.10
2023-07-01T04:51:02.736Z,8.77
2023-07-01T04:52:06.955Z,7.60
2023-07-01T04:53:13.077Z,8.00
2023-07-01T04:54:18.362Z,8.52
2023-07-01T04:55:22.096Z,7.65
2023-07-01T04:56:26.843Z,7.05
2023-07-01T04:57:30.483Z,7.50
2023-07-01T04:58:34.168Z,9.38
2023-07-01T04:59:37.923Z,9.10
2023-07-01T05:00:41.557Z,10.80
2023-07-01T05:01:45.317Z,10.27
2023-07-01T05:02:49.434Z,9.53
2023-07-01T05:03:53.385Z,10.00
2023-07-01T05:04:57.180Z,10.07
2023-07-01T05:06:01.010Z,9.77
2023-07-01T05:07:05.061Z,12.98
2023-07-01T05:08:08.803Z,11.33
2023-07-01T05:09:12.490Z,11.48
2023-07-01T05:10:18.010Z,11.27
2023-07-01T05:11:21.862Z,9.93
2023-07-01T05:12:25.615Z,11.45
2023-07-01T05:13:29.259Z,10.27
2023-07-01T05:14:32.991Z,12.27
2023-07-01T05:15:36.615Z,12.50
2023-07-01T05:16:40.317Z,13.20
2023-07-01T05:17:44.587Z,11.60
2023-07-01T05:18:48.276Z,9.93
2023-07-01T05:19:52.010Z,11.18
2023-07-01T05:20:55.738Z,11.13
2023-07-01T05:21:59.431Z,11.00
2023-07-01T05:23:03.213Z,10.50
2023-07-01T05:24:07.248Z,11.70
2023-07-01T05:25:11.096Z,9.68
2023-07-01T05:26:16.412Z,13.10
2023-07-01T05:27:20.069Z,12.95
2023-07-01T05:28:23.762Z,10.50
2023-07-01T05:29:27.419Z,11.47
2023-07-01T05:30:31.140Z,12.20
2023-07-01T05:31:34.860Z,12.82
2023-07-01T05:32:38.613Z,11.45
2023-07-01T05:33:45.090Z,11.18
2023-07-01T05:34:48.809Z,11.70
2023-07-01T05:35:52.425Z,12.65
2023-07-01T05:36:57.110Z,12.60
2023-07-01T05:38:07.600Z,11.18
2023-07-01T05:39:11.283Z,11.38
2023-07-01T05:40:15.250Z,11.23
2023-07-01T05:41:20.572Z,11.35
2023-07-01T05:42:24.244Z,11.07
2023-07-01T05:43:27.884Z,10.98
2023-07-01T05:44:31.564Z,10.95
2023-07-01T05:45:35.265Z,12.87
2023-07-01T05:46:39.002Z,11.90
2023-07-01T05:47:42.725Z,10.07
2023-07-01T05:48:46.380Z,10.57
2023-07-01T05:49:50.088Z,11.75
2023-07-01T05:50:53.826Z,9.83
2023-07-01T05:51:57.462Z,11.48
2023-07-01T05:53:01.158Z,10.55
2023-07-01T05:54:04.902Z,9.63
2023-07-01T05:55:09.715Z,8.73
2023-07-01T05:56:13.596Z,9.77
2023-07-01T05:57:18.904Z,9.32
2023-07-01T05:58:22.561Z,8.75
2023-07-01T05:59:26.339Z,10.52
2023-07-01T06:00:29.990Z,8.75
2023-07-01T06:01:33.812Z,8.30
2023-07-01T06:02:37.595Z,9.20
2023-07-01T06:03:41.316Z,9.60
2023-07-01T06:04:44.982Z,9.10
2023-07-01T06:05:48.771Z,8.75
2023-07-01T06:06:52.485Z,7.80
2023-07-01T06:07:56.158Z,7.35
2023-07-01T06:08:59.833Z,8.02
2023-07-01T06:10:03.538Z,7.35
2023-07-01T06:11:07.276Z,7.70
2023-07-01T06:12:12.120Z,8.00
2023-07-01T06:13:17.471Z,6.55
2023-07-01T06:14:21.110Z,8.98
2023-07-01T06:15:24.882Z,7.55
2023-07-01T06:16:28.605Z,7.07
2023-07-01T06:17:32.599Z,6.97
2023-07-01T06:18:36.345Z,7.13
2023-07-01T06:19:40.001Z,7.70
2023-07-01T06:20:43.896Z,7.82
2023-07-01T06:21:47.719Z,6.32
2023-07-01T06:22:51.367Z,6.90
2023-07-01T06:23:56.561Z,7.53
2023-07-01T06:25:00.244Z,7.43
2023-07-01T06:26:04.001Z,6.55
2023-07-01T06:27:07.729Z,6.72
2023-07-01T06:28:11.373Z,6.53
2023-07-01T06:29:16.821Z,7.50
2023-07-01T06:30:20.621Z,7.07
2023-07-01T06:31:24.322Z,6.00
2023-07-01T06:32:28.996Z,6.00
2023-07-01T06:33:32.884Z,6.50
2023-07-01T06:34:36.570Z,5.90
2023-07-01T06:35:40.249Z,6.47
2023-07-01T06:36:43.985Z,5.40
2023-07-01T06:37:47.690Z,6.40
2023-07-01T06:38:51.327Z,6.90
2023-07-01T06:39:55.006Z,6.20
2023-07-01T06:40:58.712Z,5.90
2023-07-01T06:42:02.376Z,6.20
2023-07-01T06:43:06.246Z,5.30
2023-07-01T06:44:09.965Z,7.37
2023-07-01T06:45:15.380Z,5.55
2023-07-01T06:46:21.090Z,5.45
2023-07-01T06:47:24.870Z,5.78
2023-07-01T06:48:28.581Z,5.55
2023-07-01T06:49:32.218Z,7.90
2023-07-01T06:50:36.060Z,5.95
2023-07-01T06:51:39.789Z,5.30
2023-07-01T06:52:43.473Z,5.10
2023-07-01T06:53:47.156Z,5.07
2023-07-01T06:54:50.836Z,5.87
2023-07-01T06:55:54.545Z,6.03
2023-07-01T06:56:58.245Z,5.55
2023-07-01T06:58:03.278Z,4.82
2023-07-01T06:59:06.997Z,5.10
2023-07-01T07:00:13.013Z,4.83
2023-07-01T07:01:18.371Z,6.10
2023-07-01T07:02:23.692Z,5.57
2023-07-01T07:03:27.773Z,5.85
2023-07-01T07:04:31.546Z,5.10
2023-07-01T07:05:35.268Z,5.13
2023-07-01T07:06:38.902Z,5.13
2023-07-01T07:07:42.576Z,5.47
2023-07-01T07:08:46.254Z,4.47
2023-07-01T07:09:49.984Z,5.10
2023-07-01T07:10:53.617Z,4.47
2023-07-01T07:11:57.300Z,4.82
2023-07-01T07:13:01.024Z,4.50
2023-07-01T07:14:04.689Z,5.10
2023-07-01T07:15:09.582Z,4.80
2023-07-01T07:16:13.393Z,5.47
2023-07-01T07:17:18.961Z,4.75
2023-07-01T07:18:22.813Z,4.60
2023-07-01T07:19:26.627Z,5.15
2023-07-01T07:20:30.480Z,4.43
2023-07-01T07:21:35.611Z,5.50
2023-07-01T07:22:39.364Z,4.72
2023-07-01T07:23:43.025Z,5.22
2023-07-01T07:24:46.681Z,5.85
2023-07-01T07:25:50.339Z,5.05
2023-07-01T07:26:57.167Z,4.53
2023-07-01T07:28:01.384Z,4.53
2023-07-01T07:29:05.299Z,5.25
2023-07-01T07:30:10.062Z,5.95
2023-07-01T07:31:13.731Z,5.22
2023-07-01T07:32:19.022Z,4.80
2023-07-01T07:33:22.747Z,5.47
2023-07-01T07:34:26.845Z,4.70
2023-07-01T07:35:30.512Z,5.38
2023-07-01T07:36:34.259Z,5.72
2023-07-01T07:37:38.337Z,4.90
2023-07-01T07:38:42.073Z,5.00
2023-07-01T07:39:45.699Z,5.35
2023-07-01T07:40:49.669Z,5.00
2023-07-01T07:41:53.543Z,6.25
2023-07-01T07:42:57.204Z,6.33
2023-07-01T07:44:00.912Z,5.65
2023-07-01T07:45:05.113Z,5.55
2023-07-01T07:46:08.829Z,4.70
2023-07-01T07:47:12.550Z,5.10
2023-07-01T07:48:28.430Z,5.67
2023-07-01T07:49:32.054Z,5.22
2023-07-01T07:50:36.254Z,4.90
2023-07-01T07:51:40.106Z,5.65
2023-07-01T07:52:43.805Z,5.57
2023-07-01T07:53:47.570Z,6.27
2023-07-01T07:54:51.312Z,5.28
2023-07-01T07:55:54.990Z,6.20
2023-07-01T07:56:58.665Z,5.55
2023-07-01T07:58:02.691Z,5.18
2023-07-01T07:59:06.376Z,5.23
2023-07-01T08:00:11.220Z,5.03
2023-07-01T08:01:15.115Z,5.05
2023-07-01T08:02:18.851Z,5.07
2023-07-01T08:03:24.406Z,5.15
2023-07-01T08:04:28.667Z,6.30
2023-07-01T08:05:32.566Z,5.55
2023-07-01T08:06:36.400Z,5.20
2023-07-01T08:07:40.207Z,5.32
2023-07-01T08:08:43.862Z,6.57
2023-07-01T08:09:47.537Z,5.20
2023-07-01T08:10:51.249Z,6.13
2023-07-01T08:11:55.308Z,5.45
2023-07-01T08:12:59.072Z,7.32
2023-07-01T08:14:02.789Z,5.45
2023-07-01T08:15:09.476Z,8.17
2023-07-01T08:16:13.369Z,7.40
2023-07-01T08:17:17.028Z,5.97
2023-07-01T08:18:20.893Z,5.40
2023-07-01T08:19:26.261Z,5.38
2023-07-01T08:20:29.953Z,6.13
2023-07-01T08:21:33.635Z,6.78
2023-07-01T08:22:37.423Z,5.68
2023-07-01T08:23:41.088Z,6.95
2023-07-01T08:24:44.740Z,6.28
2023-07-01T08:25:48.719Z,7.30
2023-07-01T08:26:52.463Z,7.07
2023-07-01T08:27:56.389Z,5.40
2023-07-01T08:29:00.055Z,6.50
2023-07-01T08:30:03.769Z,5.80
2023-07-01T08:31:07.520Z,6.13
2023-07-01T08:32:11.373Z,6.05
2023-07-01T08:33:15.077Z,5.88
2023-07-01T08:34:18.814Z,7.30
2023-07-01T08:35:24.101Z,6.22
2023-07-01T08:36:27.886Z,6.63
2023-07-01T08:37:38.740Z,6.05
2023-07-01T08:38:42.498Z,6.20
2023-07-01T08:39:46.166Z,6.47
2023-07-01T08:40:50.690Z,6.72
2023-07-01T08:41:58.963Z,5.30
2023-07-01T08:43:05.623Z,6.38
2023-07-01T08:44:12.558Z,7.30
2023-07-01T08:45:16.381Z,8.00
2023-07-01T08:46:20.358Z,5.85
2023-07-01T08:47:26.987Z,6.50
2023-07-01T08:48:33.488Z,6.72
2023-07-01T08:49:42.019Z,6.68
2023-07-01T08:50:53.662Z,6.97
2023-07-01T08:52:06.302Z,5.55
2023-07-01T08:53:10.608Z,5.77
2023-07-01T08:54:15.543Z,5.75
2023-07-01T08:55:19.532Z,5.93
2023-07-01T08:56:24.058Z,5.70
2023-07-01T08:57:27.878Z,4.95
2023-07-01T08:58:32.215Z,5.10
2023-07-01T08:59:35.960Z,5.07
2023-07-01T09:00:39.888Z,5.22
2023-07-01T09:01:44.963Z,4.93
2023-07-01T09:02:50.974Z,5.75
2023-07-01T09:03:55.517Z,5.47
2023-07-01T09:05:00.801Z,5.50
2023-07-01T09:06:06.517Z,4.97
2023-07-01T09:07:11.221Z,5.10
2023-07-01T09:08:14.989Z,4.50
2023-07-01T09:09:18.711Z,5.33
2023-07-01T09:10:22.433Z,5.53
2023-07-01T09:11:26.205Z,5.25
2023-07-01T09:12:30.289Z,4.70
2023-07-01T09:13:34.072Z,6.45
2023-07-01T09:15:02.614Z,5.83
2023-07-01T09:16:06.656Z,5.45
2023-07-01T09:17:28.508Z,5.13
2023-07-01T09:18:32.609Z,5.07
2023-07-01T09:19:50.491Z,5.90
2023-07-01T09:20:54.935Z,5.20
2023-07-01T09:22:10.129Z,4.82
2023-07-01T09:23:26.053Z,5.28
2023-07-01T09:24:39.033Z,6.35
2023-07-01T09:25:42.668Z,5.35
2023-07-01T09:26:54.693Z,5.00
2023-07-01T09:27:58.397Z,4.55
2023-07-01T09:29:08.914Z,5.82
2023-07-01T09:30:28.669Z,5.10
2023-07-01T09:31:45.907Z,6.05
2023-07-01T09:32:49.946Z,4.93
2023-07-01T09:34:01.857Z,4.75
2023-07-01T09:35:06.163Z,5.32
2023-07-01T09:36:10.190Z,5.05
2023-07-01T09:37:24.313Z,4.82
2023-07-01T09:38:28.029Z,5.50
2023-07-01T09:39:34.569Z,5.80
2023-07-01T09:40:38.228Z,5.95
2023-07-01T09:41:42.033Z,5.10
2023-07-01T09:42:52.374Z,4.90
2023-07-01T09:43:57.475Z,4.87
2023-07-01T09:45:11.317Z,6.13
2023-07-01T09:46:15.036Z,4.68
2023-07-01T09:47:27.406Z,5.22
2023-07-01T09:48:31.164Z,4.40
2023-07-01T09:49:45.240Z,5.90
2023-07-01T09:50:50.351Z,4.68
2023-07-01T09:51:54.242Z,4.68
2023-07-01T09:52:59.709Z,3.90
2023-07-01T09:54:03.423Z,4.68
2023-07-01T09:55:09.782Z,4.53
2023-07-01T09:56:16.574Z,4.60
2023-07-01T09:57:20.357Z,4.70
2023-07-01T09:58:24.468Z,4.50
2023-07-01T09:59:28.985Z,5.22
2023-07-01T10:00:32.958Z,4.53
2023-07-01T10:01:36.920Z,5.45
2023-07-01T10:02:41.449Z,5.20
2023-07-01T10:03:46.078Z,4.50
2023-07-01T10:04:49.888Z,5.25
2023-07-01T10:05:53.941Z,4.57
2023-07-01T10:06:58.062Z,4.07
2023-07-01T10:08:03.424Z,4.70
2023-07-01T10:09:07.071Z,5.35
2023-07-01T10:10:14.878Z,4.50
2023-07-01T10:11:21.456Z,4.70
2023-07-01T10:12:25.811Z,5.15
2023-07-01T10:13:31.134Z,4.40
2023-07-01T10:14:37.028Z,4.38
2023-07-01T10:15:41.498Z,5.38
2023-07-01T10:16:48.824Z,4.73
2023-07-01T10:17:54.344Z,4.50
2023-07-01T10:18:58.158Z,4.78
2023-07-01T10:20:29.420Z,4.40
2023-07-01T10:21:33.160Z,6.00
2023-07-01T10:22:37.540Z,4.33
2023-07-01T10:23:47.849Z,4.93
2023-07-01T10:25:01.580Z,4.53
2023-07-01T10:26:38.068Z,4.57
2023-07-01T10:28:10.527Z,4.20
2023-07-01T10:29:41.832Z,4.47
2023-07-01T10:31:15.890Z,4.55
2023-07-01T10:32:32.109Z,5.20
2023-07-01T10:34:05.508Z,5.03
2023-07-01T10:35:16.369Z,4.35
2023-07-01T10:36:20.112Z,6.03
2023-07-01T10:37:25.039Z,4.60
2023-07-01T10:38:28.963Z,4.55
2023-07-01T10:39:35.326Z,4.63
2023-07-01T10:40:45.977Z,4.60
2023-07-01T10:41:53.911Z,4.57
2023-07-01T10:43:23.094Z,5.82
2023-07-01T10:44:27.412Z,4.45
2023-07-01T10:45:40.881Z,5.13
2023-07-01T10:46:44.737Z,4.75
2023-07-01T10:48:14.939Z,6.60
2023-07-01T10:49:19.147Z,4.53
2023-07-01T10:50:24.094Z,4.35
2023-07-01T10:51:27.878Z,4.05
2023-07-01T10:52:32.527Z,5.30
2023-07-01T10:54:00.428Z,5.83
2023-07-01T10:55:39.202Z,4.80
2023-07-01T10:57:03.343Z,4.45
2023-07-01T10:58:23.700Z,6.18
2023-07-01T10:59:27.772Z,5.47
2023-07-01T11:00:38.909Z,4.77
2023-07-01T11:01:46.853Z,5.38
2023-07-01T11:02:50.584Z,5.57
2023-07-01T11:03:58.925Z,5.43
2023-07-01T11:05:08.588Z,5.57
2023-07-01T11:06:13.225Z,5.07
2023-07-01T11:07:24.924Z,5.63
2023-07-01T11:08:29.037Z,5.28
2023-07-01T11:09:34.421Z,4.97
2023-07-01T11:10:45.073Z,4.93
2023-07-01T11:11:48.777Z,5.90
2023-07-01T11:12:52.613Z,4.78
2023-07-01T11:14:00.980Z,6.32
2023-07-01T11:15:05.055Z,6.55
2023-07-01T11:16:10.867Z,5.93
2023-07-01T11:17:16.064Z,4.77
2023-07-01T11:18:19.902Z,5.70
2023-07-01T11:19:23.561Z,5.07
2023-07-01T11:20:27.262Z,5.68
2023-07-01T11:21:31.469Z,6.03
2023-07-01T11:22:35.212Z,5.07
2023-07-01T11:23:39.041Z,4.95
2023-07-01T11:24:43.003Z,5.15
2023-07-01T11:25:49.177Z,4.38
2023-07-01T11:26:53.286Z,6.72
2023-07-01T11:27:57.059Z,3.83
2023-07-01T11:29:01.330Z,6.35
2023-07-01T11:30:05.401Z,4.57
2023-07-01T11:31:16.146Z,5.43
2023-07-01T11:32:20.021Z,5.78
2023-07-01T11:33:23.843Z,4.73
2023-07-01T11:34:27.683Z,4.30
2023-07-01T11:35:50.785Z,4.63
2023-07-01T11:36:54.522Z,6.88
2023-07-01T11:37:58.284Z,4.80
2023-07-01T11:39:06.663Z,4.83
2023-07-01T11:40:11.545Z,4.55
2023-07-01T11:41:18.776Z,6.50
2023-07-01T11:42:22.571Z,5.55
2023-07-01T11:43:26.368Z,5.75
2023-07-01T11:44:31.246Z,7.07
2023-07-01T11:45:47.154Z,6.78
2023-07-01T11:46:51.674Z,6.80
2023-07-01T11:47:55.625Z,5.00
2023-07-01T11:48:59.477Z,4.70
2023-07-01T11:50:05.918Z,6.17
2023-07-01T11:51:09.670Z,4.65
2023-07-01T11:52:24.827Z,4.97
2023-07-01T11:53:28.870Z,5.40
2023-07-01T11:54:45.626Z,4.80
2023-07-01T11:55:49.378Z,5.20
2023-07-01T11:57:09.723Z,6.60
2023-07-01T11:58:27.561Z,5.30
2023-07-01T11:59:31.882Z,5.18
2023-07-01T12:00:40.713Z,5.18
2023-07-01T12:01:44.589Z,6.70
2023-07-01T12:02:54.781Z,6.65
2023-07-01T12:03:58.819Z,4.68
2023-07-01T12:05:03.143Z,5.40
2023-07-01T12:06:06.807Z,5.28
2023-07-01T12:07:11.731Z,5.20
2023-07-01T12:08:15.559Z,6.97
2023-07-01T12:09:33.660Z,4.70
2023-07-01T12:10:38.172Z,5.38
2023-07-01T12:11:48.290Z,4.97
2023-07-01T12:12:53.549Z,6.30
2023-07-01T12:13:57.943Z,4.93
2023-07-01T12:15:02.992Z,4.88
2023-07-01T12:16:07.048Z,6.43
2023-07-01T12:17:25.091Z,4.95
2023-07-01T12:18:29.383Z,5.60
2023-07-01T12:19:33.913Z,5.30
2023-07-01T12:20:37.695Z,5.82
2023-07-01T12:21:41.533Z,5.20
2023-07-01T12:22:45.186Z,5.85
2023-07-01T12:23:49.019Z,5.73
2023-07-01T12:24:56.091Z,5.78
2023-07-01T12:25:59.994Z,5.43
2023-07-01T12:27:04.913Z,4.65
2023-07-01T12:28:10.221Z,5.53
2023-07-01T12:29:14.028Z,7.10
2023-07-01T12:30:17.703Z,6.10
2023-07-01T12:31:21.493Z,6.80
2023-07-01T12:32:25.420Z,5.05
2023-07-01T12:33:29.174Z,4.13
2023-07-01T12:34:32.829Z,4.77
2023-07-01T12:35:36.575Z,5.68
2023-07-01T12:36:40.299Z,4.68
2023-07-01T12:37:45.204Z,5.03
2023-07-01T12:38:51.320Z,5.70
2023-07-01T12:39:58.491Z,4.63
2023-07-01T12:41:04.578Z,5.75
2023-07-01T12:42:09.061Z,4.47
2023-07-01T12:43:14.621Z,4.45
2023-07-01T12:44:18.314Z,4.57
2023-07-01T12:45:22.152Z,4.50
2023-07-01T12:46:25.917Z,4.88
2023-07-01T12:47:30.355Z,5.72
2023-07-01T12:48:34.282Z,4.10
2023-07-01T12:49:37.992Z,5.65
2023-07-01T12:50:41.677Z,5.40
2023-07-01T12:51:45.959Z,4.68
2023-07-01T12:52:54.318Z,7.15
2023-07-01T12:54:11.276Z,5.65
2023-07-01T12:55:20.519Z,5.10
2023-07-01T12:56:24.164Z,5.80
2023-07-01T12:57:27.945Z,5.70
2023-07-01T12:58:33.263Z,6.95
2023-07-01T12:59:36.920Z,5.25
2023-07-01T13:00:43.673Z,5.72
2023-07-01T13:01:49.566Z,6.80
2023-07-01T13:02:53.441Z,4.53
2023-07-01T13:03:57.450Z,5.13
2023-07-01T13:05:02.472Z,6.00
2023-07-01T13:06:22.705Z,4.93
2023-07-01T13:07:31.043Z,5.00
2023-07-01T13:08:35.549Z,4.88
2023-07-01T13:09:41.882Z,5.20
2023-07-01T13:10:45.533Z,5.55
2023-07-01T13:11:49.293Z,5.00
2023-07-01T13:12:57.041Z,6.33
2023-07-01T13:14:04.414Z,7.53
2023-07-01T13:15:24.650Z,5.93
2023-07-01T13:16:32.564Z,5.32
2023-07-01T13:17:40.225Z,6.13
2023-07-01T13:18:44.396Z,5.47
2023-07-01T13:19:48.202Z,6.30
2023-07-01T13:20:52.179Z,8.18
2023-07-01T13:21:55.838Z,6.43
2023-07-01T13:22:59.972Z,4.88
2023-07-01T13:24:05.640Z,4.23
2023-07-01T13:25:18.132Z,4.78
2023-07-01T13:26:21.806Z,4.40
2023-07-01T13:27:25.624Z,6.28
2023-07-01T13:28:29.373Z,6.25
2023-07-01T13:29:36.734Z,4.83
2023-07-01T13:30:48.057Z,6.68
2023-07-01T13:31:52.706Z,5.00
2023-07-01T13:32:56.411Z,5.85
2023-07-01T13:34:02.563Z,5.28
2023-07-01T13:35:07.536Z,6.37
2023-07-01T13:36:13.640Z,4.68
2023-07-01T13:37:20.650Z,6.30
2023-07-01T13:38:24.976Z,5.80
2023-07-01T13:39:43.243Z,5.72
2023-07-01T13:40:48.501Z,6.47
2023-07-01T13:41:52.255Z,5.85
2023-07-01T13:42:55.895Z,6.35
2023-07-01T13:44:03.205Z,5.97
2023-07-01T13:45:19.737Z,5.72
2023-07-01T13:46:23.545Z,6.77
2023-07-01T13:47:45.615Z,5.22
2023-07-01T13:48:51.705Z,6.07
2023-07-01T13:49:55.345Z,5.75
2023-07-01T13:50:59.117Z,6.68
2023-07-01T13:52:03.777Z,6.50
2023-07-01T13:53:09.487Z,6.78
2023-07-01T13:54:18.201Z,6.22
2023-07-01T13:55:23.313Z,7.50
2023-07-01T13:56:27.308Z,6.95
2023-07-01T13:57:31.390Z,6.93
2023-07-01T13:58:45.787Z,7.80
2023-07-01T13:59:49.440Z,5.35
2023-07-01T14:00:55.464Z,6.60
2023-07-01T14:02:01.295Z,5.60
2023-07-01T14:03:08.016Z,7.10
2023-07-01T14:04:14.297Z,5.30
2023-07-01T14:05:18.096Z,7.05
2023-07-01T14:06:22.915Z,6.25
2023-07-01T14:07:26.621Z,5.70
2023-07-01T14:08:30.300Z,4.80
2023-07-01T14:09:38.356Z,7.50
2023-07-01T14:10:42.341Z,4.93
2023-07-01T14:11:46.187Z,6.32
2023-07-01T14:12:49.814Z,6.68
2023-07-01T14:13:55.885Z,6.93
2023-07-01T14:14:59.800Z,5.38
2023-07-01T14:16:05.373Z,6.22
2023-07-01T14:17:09.265Z,5.85
2023-07-01T14:18:22.008Z,6.60
2023-07-01T14:19:25.733Z,5.40
2023-07-01T14:20:29.454Z,7.63
2023-07-01T14:21:33.142Z,5.93
2023-07-01T14:22:36.864Z,5.68
2023-07-01T14:23:41.652Z,5.47
2023-07-01T14:24:47.626Z,5.97
2023-07-01T14:25:51.740Z,5.88
2023-07-01T14:26:56.718Z,7.07
2023-07-01T14:28:02.891Z,5.82
2023-07-01T14:29:06.772Z,5.63
2023-07-01T14:30:16.615Z,5.50